Forside
METAR-TAF:

METAR-TAF

Lufthavne :

Midtjyllands Lufthavn

Karup, Danmark

Breddekreds: 56-18N, længdekreds: 009-07E, højde: 52 m

Aktuelle vejr

Denne rapport blev lavet for 22 minutter siden, kl. 02:20 UTC
Vind 13 kt fra nordvest
Temperatur 10°C
Fugtighed 87%
Tryk 1023 hPa
Sigt 10 km eller mere

METAR: EKKA 250220Z AUTO 31013KT 9999 BKN013/// 10/08 Q1023

Tid: 04:42 (02:42 UTC)

Vejrudsigter

Denne rapport blev lavet for 22 minutter siden, kl. 02:20 UTC
Foreløbig gælder fra 25 på 03 UTC til 26 på 03 UTC
Vind 15 kt fra vestnordvest
Sigt 10 km eller mere
Brudte skyer i en højde af 1200 ft
ændring
fra 25 på 03 UTC til 25 på 06 UTC
Vind 10 kt fra nordnordvest
Spredte skyer i en højde af 2000 ft
ændring
fra 25 på 22 UTC til 25 på 24 UTC
Vind 5 kt fra vestnordvest
Let tåge
Midlertidig
fra 26 på 00 UTC til 26 på 03 UTC
Sigt: 0400 m
tågebanker

TAF: EKKA 250220Z 2503/2603 30015KT 9999 BKN012 BECMG 2503/2506 33010KT SCT020 BECMG 2522/2524 30005KT MIFG TEMPO 2600/2603 0400 BCFG

Vejrobservationer og prognoser fra mere end 4000 lufthavne (METAR og TAF).

De gule og røde prikker repræsenterer de meteorologiske stationer.

Flyt musen over at se navnet på stationen.

Så klik over at se vejr observationer og prognoser.

At skifte det kort: Klik på de grønne knapper med et sort kors for at zoome ind; på den grønne knap med en bindestreg for at zoome ud; eller på de grønne pile for tilstødende kort.


METAR-TAF: